sensor_id;sensor_type;location;lat;lon;timestamp;pressure;altitude;pressure_sealevel;temperature;humidity
12182;BME280;6154;51.550;12.138;2022-09-09T00:00:14;100000.53;;;20.38;59.40
12182;BME280;6154;51.550;12.138;2022-09-09T00:02:46;99997.47;;;20.33;60.08
12182;BME280;6154;51.550;12.138;2022-09-09T00:05:20;100013.22;;;20.28;59.78
12182;BME280;6154;51.550;12.138;2022-09-09T00:07:55;100010.88;;;20.25;59.59
12182;BME280;6154;51.550;12.138;2022-09-09T00:10:29;100008.78;;;20.19;59.75
12182;BME280;6154;51.550;12.138;2022-09-09T00:13:08;100004.56;;;20.16;59.52
12182;BME280;6154;51.550;12.138;2022-09-09T00:15:50;100009.09;;;20.16;60.05
12182;BME280;6154;51.550;12.138;2022-09-09T00:18:28;100001.19;;;20.14;59.72
12182;BME280;6154;51.550;12.138;2022-09-09T00:21:04;99997.66;;;20.14;60.16
12182;BME280;6154;51.550;12.138;2022-09-09T00:23:38;99995.97;;;20.13;59.94
12182;BME280;6154;51.550;12.138;2022-09-09T00:26:11;99993.28;;;20.13;59.71
12182;BME280;6154;51.550;12.138;2022-09-09T00:28:47;99988.75;;;20.13;59.58
12182;BME280;6154;51.550;12.138;2022-09-09T00:31:21;99986.06;;;20.13;59.90
12182;BME280;6154;51.550;12.138;2022-09-09T00:33:53;99994.97;;;20.14;59.95
12182;BME280;6154;51.550;12.138;2022-09-09T00:36:23;99994.13;;;20.13;59.62
12182;BME280;6154;51.550;12.138;2022-09-09T00:38:56;99995.97;;;20.13;59.69
12182;BME280;6154;51.550;12.138;2022-09-09T00:41:35;99996.97;;;20.12;59.64
12182;BME280;6154;51.550;12.138;2022-09-09T00:44:17;100000.66;;;20.10;60.63
12182;BME280;6154;51.550;12.138;2022-09-09T00:46:56;100002.34;;;20.12;60.34
12182;BME280;6154;51.550;12.138;2022-09-09T00:49:37;100003.34;;;20.10;60.19
12182;BME280;6154;51.550;12.138;2022-09-09T00:52:16;100007.03;;;20.09;60.41
12182;BME280;6154;51.550;12.138;2022-09-09T00:54:56;100007.34;;;20.06;59.58
12182;BME280;6154;51.550;12.138;2022-09-09T00:57:31;100003.81;;;20.06;60.05
12182;BME280;6154;51.550;12.138;2022-09-09T01:00:22;100002.28;;;20.03;59.43
12182;BME280;6154;51.550;12.138;2022-09-09T01:03:02;100010.22;;;20.05;60.33
12182;BME280;6154;51.550;12.138;2022-09-09T01:05:39;99999.91;;;20.00;60.37
12182;BME280;6154;51.550;12.138;2022-09-09T01:08:25;100003.06;;;19.96;59.67
12182;BME280;6154;51.550;12.138;2022-09-09T01:10:58;100001.38;;;19.95;59.33
12182;BME280;6154;51.550;12.138;2022-09-09T01:13:29;100005.38;;;19.91;59.32
12182;BME280;6154;51.550;12.138;2022-09-09T01:16:01;100006.53;;;19.88;59.44
12182;BME280;6154;51.550;12.138;2022-09-09T01:18:33;100005.12;;;19.84;59.73
12182;BME280;6154;51.550;12.138;2022-09-09T01:21:08;100005.44;;;19.81;59.08
12182;BME280;6154;51.550;12.138;2022-09-09T01:23:54;99999.41;;;19.79;59.33
12182;BME280;6154;51.550;12.138;2022-09-09T01:26:32;100004.91;;;19.77;59.07
12182;BME280;6154;51.550;12.138;2022-09-09T01:29:07;99997.19;;;19.74;59.08
12182;BME280;6154;51.550;12.138;2022-09-09T01:31:38;100000.47;;;19.68;59.70
12182;BME280;6154;51.550;12.138;2022-09-09T01:34:10;99999.09;;;19.64;59.61
12182;BME280;6154;51.550;12.138;2022-09-09T01:36:44;99996.34;;;19.56;59.68
12182;BME280;6154;51.550;12.138;2022-09-09T01:39:15;99999.16;;;19.55;59.89
12182;BME280;6154;51.550;12.138;2022-09-09T01:41:45;99999.28;;;19.53;59.96
12182;BME280;6154;51.550;12.138;2022-09-09T01:44:15;99999.16;;;19.55;60.16
12182;BME280;6154;51.550;12.138;2022-09-09T01:46:45;100001.69;;;19.56;60.02
12182;BME280;6154;51.550;12.138;2022-09-09T01:49:14;99993.66;;;19.56;60.02
12182;BME280;6154;51.550;12.138;2022-09-09T01:51:43;99994.75;;;19.53;60.44
12182;BME280;6154;51.550;12.138;2022-09-09T01:54:12;99993.22;;;19.51;60.53
12182;BME280;6154;51.550;12.138;2022-09-09T01:56:54;99995.38;;;19.47;60.58
12182;BME280;6154;51.550;12.138;2022-09-09T01:59:35;99992.84;;;19.46;61.45
12182;BME280;6154;51.550;12.138;2022-09-09T02:02:12;99991.28;;;19.43;61.29
12182;BME280;6154;51.550;12.138;2022-09-09T02:04:45;99991.75;;;19.39;60.99
12182;BME280;6154;51.550;12.138;2022-09-09T02:07:25;99990.22;;;19.36;61.26
12182;BME280;6154;51.550;12.138;2022-09-09T02:10:00;99986.28;;;19.31;61.66
12182;BME280;6154;51.550;12.138;2022-09-09T02:12:31;99990.97;;;19.29;61.23
12182;BME280;6154;51.550;12.138;2022-09-09T02:15:03;99988.44;;;19.27;60.95
12182;BME280;6154;51.550;12.138;2022-09-09T02:17:36;99989.44;;;19.26;61.06
12182;BME280;6154;51.550;12.138;2022-09-09T02:20:10;99993.41;;;19.22;60.86
12182;BME280;6154;51.550;12.138;2022-09-09T02:22:42;99991.19;;;19.17;60.78
12182;BME280;6154;51.550;12.138;2022-09-09T02:25:15;99992.47;;;19.13;60.40
12182;BME280;6154;51.550;12.138;2022-09-09T02:27:47;100005.66;;;19.07;60.95
12182;BME280;6154;51.550;12.138;2022-09-09T02:30:19;100010.75;;;19.00;60.84
12182;BME280;6154;51.550;12.138;2022-09-09T02:32:50;100008.22;;;18.99;60.69
12182;BME280;6154;51.550;12.138;2022-09-09T02:35:25;100005.69;;;18.97;60.59
12182;BME280;6154;51.550;12.138;2022-09-09T02:37:58;100002.31;;;18.95;60.74
12182;BME280;6154;51.550;12.138;2022-09-09T02:40:28;99998.09;;;18.92;60.55
12182;BME280;6154;51.550;12.138;2022-09-09T02:42:58;100006.97;;;18.93;60.43
12182;BME280;6154;51.550;12.138;2022-09-09T02:45:33;99996.41;;;18.91;61.03
12182;BME280;6154;51.550;12.138;2022-09-09T02:48:10;99996.13;;;18.94;61.29
12182;BME280;6154;51.550;12.138;2022-09-09T02:50:50;99993.28;;;18.96;61.67
12182;BME280;6154;51.550;12.138;2022-09-09T02:53:26;99998.50;;;18.98;61.59
12182;BME280;6154;51.550;12.138;2022-09-09T02:56:00;100003.16;;;18.95;61.41
12182;BME280;6154;51.550;12.138;2022-09-09T02:58:34;100002.87;;;18.99;61.02
12182;BME280;6154;51.550;12.138;2022-09-09T03:01:03;99993.13;;;18.98;60.99
12182;BME280;6154;51.550;12.138;2022-09-09T03:03:32;99993.81;;;19.00;61.17
12182;BME280;6154;51.550;12.138;2022-09-09T03:06:01;99997.88;;;19.04;61.31
12182;BME280;6154;51.550;12.138;2022-09-09T03:08:30;99989.25;;;19.10;61.43
12182;BME280;6154;51.550;12.138;2022-09-09T03:10:59;99993.19;;;19.15;61.43
12182;BME280;6154;51.550;12.138;2022-09-09T03:13:29;100000.78;;;19.20;61.30
12182;BME280;6154;51.550;12.138;2022-09-09T03:15:59;100006.66;;;19.23;61.74
12182;BME280;6154;51.550;12.138;2022-09-09T03:18:28;100001.56;;;19.30;61.76
12182;BME280;6154;51.550;12.138;2022-09-09T03:20:56;100001.97;;;19.35;61.51
12182;BME280;6154;51.550;12.138;2022-09-09T03:23:27;99996.59;;;19.35;61.60
12182;BME280;6154;51.550;12.138;2022-09-09T03:25:56;99991.59;;;19.40;61.06
12182;BME280;6154;51.550;12.138;2022-09-09T03:28:26;99996.97;;;19.40;61.06
12182;BME280;6154;51.550;12.138;2022-09-09T03:31:01;99995.97;;;19.41;61.10
12182;BME280;6154;51.550;12.138;2022-09-09T03:33:31;99995.28;;;19.39;61.77
12182;BME280;6154;51.550;12.138;2022-09-09T03:36:01;99987.53;;;19.36;62.15
12182;BME280;6154;51.550;12.138;2022-09-09T03:38:32;99984.53;;;19.39;62.04
12182;BME280;6154;51.550;12.138;2022-09-09T03:41:00;99981.69;;;19.41;61.96
12182;BME280;6154;51.550;12.138;2022-09-09T03:43:29;99975.34;;;19.42;61.84
12182;BME280;6154;51.550;12.138;2022-09-09T03:45:57;99979.03;;;19.41;62.79
12182;BME280;6154;51.550;12.138;2022-09-09T03:48:27;99978.87;;;19.42;62.69
12182;BME280;6154;51.550;12.138;2022-09-09T03:50:56;99978.87;;;19.42;62.79
12182;BME280;6154;51.550;12.138;2022-09-09T03:53:28;99981.38;;;19.44;63.09
12182;BME280;6154;51.550;12.138;2022-09-09T03:55:57;99977.59;;;19.46;62.74
12182;BME280;6154;51.550;12.138;2022-09-09T03:58:26;99982.09;;;19.46;63.13
12182;BME280;6154;51.550;12.138;2022-09-09T04:00:57;99978.87;;;19.42;62.92
12182;BME280;6154;51.550;12.138;2022-09-09T04:03:28;99988.16;;;19.48;62.37
12182;BME280;6154;51.550;12.138;2022-09-09T04:05:58;99979.09;;;19.49;61.94
12182;BME280;6154;51.550;12.138;2022-09-09T04:08:27;99985.16;;;19.51;61.92
12182;BME280;6154;51.550;12.138;2022-09-09T04:10:55;99982.47;;;19.51;61.67
12182;BME280;6154;51.550;12.138;2022-09-09T04:13:26;99989.53;;;19.52;61.79
12182;BME280;6154;51.550;12.138;2022-09-09T04:15:57;99989.38;;;19.53;61.76
12182;BME280;6154;51.550;12.138;2022-09-09T04:18:26;99994.50;;;19.57;61.86
12182;BME280;6154;51.550;12.138;2022-09-09T04:20:56;99992.50;;;19.59;61.87
12182;BME280;6154;51.550;12.138;2022-09-09T04:23:26;99996.03;;;19.59;61.76
12182;BME280;6154;51.550;12.138;2022-09-09T04:25:57;99999.22;;;19.63;61.34
12182;BME280;6154;51.550;12.138;2022-09-09T04:28:27;100003.31;;;19.67;61.05
12182;BME280;6154;51.550;12.138;2022-09-09T04:30:57;100001.16;;;19.70;60.70
12182;BME280;6154;51.550;12.138;2022-09-09T04:33:25;99994.50;;;19.74;60.82
12182;BME280;6154;51.550;12.138;2022-09-09T04:35:55;99999.72;;;19.76;60.86
12182;BME280;6154;51.550;12.138;2022-09-09T04:38:24;100004.59;;;19.80;61.03
12182;BME280;6154;51.550;12.138;2022-09-09T04:40:53;100000.06;;;19.81;61.44
12182;BME280;6154;51.550;12.138;2022-09-09T04:43:21;100002.91;;;19.79;61.71
12182;BME280;6154;51.550;12.138;2022-09-09T04:45:53;100006.84;;;19.85;61.28
12182;BME280;6154;51.550;12.138;2022-09-09T04:48:21;100009.56;;;19.93;61.07
12182;BME280;6154;51.550;12.138;2022-09-09T04:50:57;100008.97;;;19.99;60.98
12182;BME280;6154;51.550;12.138;2022-09-09T04:53:26;100012.72;;;20.06;61.06
12182;BME280;6154;51.550;12.138;2022-09-09T04:56:01;100010.72;;;20.08;60.68
12182;BME280;6154;51.550;12.138;2022-09-09T04:58:30;100002.19;;;20.13;61.53
12182;BME280;6154;51.550;12.138;2022-09-09T05:01:05;100012.81;;;20.15;60.82
12182;BME280;6154;51.550;12.138;2022-09-09T05:03:35;100004.25;;;20.19;61.27
12182;BME280;6154;51.550;12.138;2022-09-09T05:06:08;100010.78;;;20.17;61.35
12182;BME280;6154;51.550;12.138;2022-09-09T05:08:39;100012.16;;;20.21;61.50
12182;BME280;6154;51.550;12.138;2022-09-09T05:11:14;100012.53;;;20.26;61.16
12182;BME280;6154;51.550;12.138;2022-09-09T05:13:43;100016.25;;;20.25;61.78
12182;BME280;6154;51.550;12.138;2022-09-09T05:16:11;100020.44;;;20.27;61.51
12182;BME280;6154;51.550;12.138;2022-09-09T05:18:40;100016.91;;;20.27;61.61
12182;BME280;6154;51.550;12.138;2022-09-09T05:21:11;100019.97;;;20.32;61.14
12182;BME280;6154;51.550;12.138;2022-09-09T05:23:40;100024.72;;;20.38;60.93
12182;BME280;6154;51.550;12.138;2022-09-09T05:26:12;100017.34;;;20.40;60.70
12182;BME280;6154;51.550;12.138;2022-09-09T05:28:45;100031.31;;;20.44;60.49
12182;BME280;6154;51.550;12.138;2022-09-09T05:31:14;100030.34;;;20.45;60.64
12182;BME280;6154;51.550;12.138;2022-09-09T05:33:45;100032.88;;;20.46;60.63
12182;BME280;6154;51.550;12.138;2022-09-09T05:36:18;100027.34;;;20.48;60.54
12182;BME280;6154;51.550;12.138;2022-09-09T05:38:48;100030.53;;;20.51;60.62
12182;BME280;6154;51.550;12.138;2022-09-09T05:41:19;100028.53;;;20.53;60.66
12182;BME280;6154;51.550;12.138;2022-09-09T05:43:49;100034.63;;;20.55;60.76
12182;BME280;6154;51.550;12.138;2022-09-09T05:46:20;100026.91;;;20.60;60.37
12182;BME280;6154;51.550;12.138;2022-09-09T05:48:50;100034.66;;;20.63;60.20
12182;BME280;6154;51.550;12.138;2022-09-09T05:51:23;100031.66;;;20.66;60.26
12182;BME280;6154;51.550;12.138;2022-09-09T05:53:51;100032.66;;;20.65;60.55
12182;BME280;6154;51.550;12.138;2022-09-09T05:56:22;100032.34;;;20.69;60.69
12182;BME280;6154;51.550;12.138;2022-09-09T05:58:52;100026.63;;;20.72;60.50
12182;BME280;6154;51.550;12.138;2022-09-09T06:01:23;100021.25;;;20.72;60.66
12182;BME280;6154;51.550;12.138;2022-09-09T06:03:52;100026.19;;;20.76;60.62
12182;BME280;6154;51.550;12.138;2022-09-09T06:06:25;100018.28;;;20.83;60.55
12182;BME280;6154;51.550;12.138;2022-09-09T06:08:55;100014.28;;;20.87;60.41
12182;BME280;6154;51.550;12.138;2022-09-09T06:11:26;100018.88;;;20.94;60.28
12182;BME280;6154;51.550;12.138;2022-09-09T06:13:54;100026.94;;;20.94;60.72
12182;BME280;6154;51.550;12.138;2022-09-09T06:16:25;100032.31;;;20.94;60.94
12182;BME280;6154;51.550;12.138;2022-09-09T06:18:55;100032.84;;;20.98;60.73
12182;BME280;6154;51.550;12.138;2022-09-09T06:21:27;100029.84;;;21.09;60.41
12182;BME280;6154;51.550;12.138;2022-09-09T06:23:56;100032.88;;;21.14;60.41
12182;BME280;6154;51.550;12.138;2022-09-09T06:26:29;100038.47;;;21.21;60.14
12182;BME280;6154;51.550;12.138;2022-09-09T06:28:59;100034.69;;;21.32;59.87
12182;BME280;6154;51.550;12.138;2022-09-09T06:31:31;100036.72;;;21.38;59.99
12182;BME280;6154;51.550;12.138;2022-09-09T06:34:04;100036.75;;;21.46;59.97
12182;BME280;6154;51.550;12.138;2022-09-09T06:36:35;100045.69;;;21.55;60.17
12182;BME280;6154;51.550;12.138;2022-09-09T06:39:05;100039.44;;;21.54;60.09
12182;BME280;6154;51.550;12.138;2022-09-09T06:41:40;100045.88;;;21.69;59.83
12182;BME280;6154;51.550;12.138;2022-09-09T06:44:12;100048.78;;;21.76;59.89
12182;BME280;6154;51.550;12.138;2022-09-09T06:46:42;100043.06;;;21.87;59.63
12182;BME280;6154;51.550;12.138;2022-09-09T06:49:10;100041.34;;;21.94;59.53
12182;BME280;6154;51.550;12.138;2022-09-09T06:51:39;100034.69;;;22.06;59.52
12182;BME280;6154;51.550;12.138;2022-09-09T06:54:11;100019.50;;;22.14;59.48
12182;BME280;6154;51.550;12.138;2022-09-09T06:56:41;100029.44;;;22.21;59.28
12182;BME280;6154;51.550;12.138;2022-09-09T06:59:11;100037.37;;;22.31;59.12
12182;BME280;6154;51.550;12.138;2022-09-09T07:01:41;100031.97;;;22.39;59.09
12182;BME280;6154;51.550;12.138;2022-09-09T07:04:11;100034.78;;;22.54;59.05
12182;BME280;6154;51.550;12.138;2022-09-09T07:06:43;100035.62;;;22.62;58.95
12182;BME280;6154;51.550;12.138;2022-09-09T07:09:13;100035.62;;;22.71;59.19
12182;BME280;6154;51.550;12.138;2022-09-09T07:11:43;100035.44;;;22.88;58.91
12182;BME280;6154;51.550;12.138;2022-09-09T07:14:12;100041.47;;;22.99;58.72
12182;BME280;6154;51.550;12.138;2022-09-09T07:16:41;100040.91;;;23.11;58.60
12182;BME280;6154;51.550;12.138;2022-09-09T07:19:09;100029.69;;;23.31;58.54
12182;BME280;6154;51.550;12.138;2022-09-09T07:21:38;100027.44;;;23.42;58.18
12182;BME280;6154;51.550;12.138;2022-09-09T07:24:09;100030.09;;;23.50;58.08
12182;BME280;6154;51.550;12.138;2022-09-09T07:26:40;100032.41;;;23.62;57.80
12182;BME280;6154;51.550;12.138;2022-09-09T07:29:08;100036.75;;;23.71;57.80
12182;BME280;6154;51.550;12.138;2022-09-09T07:31:38;100040.09;;;23.73;57.71
12182;BME280;6154;51.550;12.138;2022-09-09T07:34:07;100040.09;;;23.73;57.33
12182;BME280;6154;51.550;12.138;2022-09-09T07:36:37;100038.50;;;23.87;57.42
12182;BME280;6154;51.550;12.138;2022-09-09T07:39:09;100044.94;;;23.86;57.44
12182;BME280;6154;51.550;12.138;2022-09-09T07:41:39;100040.56;;;24.07;57.37
12182;BME280;6154;51.550;12.138;2022-09-09T07:44:09;100041.41;;;24.23;56.82
12182;BME280;6154;51.550;12.138;2022-09-09T07:46:39;100056.47;;;24.48;56.98
12182;BME280;6154;51.550;12.138;2022-09-09T07:49:09;100046.50;;;24.78;56.54
12182;BME280;6154;51.550;12.138;2022-09-09T07:51:39;100042.22;;;25.13;56.42
12182;BME280;6154;51.550;12.138;2022-09-09T07:54:11;100034.00;;;25.36;55.40
12182;BME280;6154;51.550;12.138;2022-09-09T07:56:40;100038.44;;;25.44;55.11
12182;BME280;6154;51.550;12.138;2022-09-09T07:59:09;100037.19;;;25.61;55.23
12182;BME280;6154;51.550;12.138;2022-09-09T08:01:41;100047.84;;;25.63;55.27
12182;BME280;6154;51.550;12.138;2022-09-09T08:04:12;100056.81;;;25.78;54.91
12182;BME280;6154;51.550;12.138;2022-09-09T08:06:45;100055.66;;;25.87;54.89
12182;BME280;6154;51.550;12.138;2022-09-09T08:09:16;100059.97;;;26.03;54.93
12182;BME280;6154;51.550;12.138;2022-09-09T08:11:45;100066.50;;;25.87;52.62
12182;BME280;6154;51.550;12.138;2022-09-09T08:14:14;100063.00;;;26.15;54.24
12182;BME280;6154;51.550;12.138;2022-09-09T08:16:44;100063.19;;;26.13;52.86
12182;BME280;6154;51.550;12.138;2022-09-09T08:19:12;100066.75;;;26.14;53.34
12182;BME280;6154;51.550;12.138;2022-09-09T08:21:44;100060.44;;;26.28;53.71
12182;BME280;6154;51.550;12.138;2022-09-09T08:24:13;100061.50;;;26.33;53.64
12182;BME280;6154;51.550;12.138;2022-09-09T08:26:46;100047.09;;;26.33;53.76
12182;BME280;6154;51.550;12.138;2022-09-09T08:29:17;100063.28;;;26.20;52.29
12182;BME280;6154;51.550;12.138;2022-09-09T08:31:47;100059.62;;;26.55;53.32
12182;BME280;6154;51.550;12.138;2022-09-09T08:34:16;100061.50;;;26.55;53.12
12182;BME280;6154;51.550;12.138;2022-09-09T08:36:49;100063.22;;;26.90;52.81
12182;BME280;6154;51.550;12.138;2022-09-09T08:39:20;100064.06;;;26.91;52.73
12182;BME280;6154;51.550;12.138;2022-09-09T08:42:11;100062.75;;;27.08;52.09
12182;BME280;6154;51.550;12.138;2022-09-09T08:44:52;100057.87;;;27.04;49.33
12182;BME280;6154;51.550;12.138;2022-09-09T08:47:32;100059.28;;;27.28;50.13
12182;BME280;6154;51.550;12.138;2022-09-09T08:50:13;100057.00;;;27.31;50.04
12182;BME280;6154;51.550;12.138;2022-09-09T08:52:51;100063.25;;;27.66;50.77
12182;BME280;6154;51.550;12.138;2022-09-09T08:55:27;100059.28;;;27.82;50.78
12182;BME280;6154;51.550;12.138;2022-09-09T08:58:04;100059.31;;;27.95;50.31
12182;BME280;6154;51.550;12.138;2022-09-09T09:00:42;100055.78;;;28.01;50.56
12182;BME280;6154;51.550;12.138;2022-09-09T09:03:19;100056.59;;;27.95;48.27
12182;BME280;6154;51.550;12.138;2022-09-09T09:05:59;100069.56;;;27.93;49.06
12182;BME280;6154;51.550;12.138;2022-09-09T09:08:33;100070.22;;;28.02;49.24
12182;BME280;6154;51.550;12.138;2022-09-09T09:11:05;100070.44;;;28.00;50.02
12182;BME280;6154;51.550;12.138;2022-09-09T09:13:40;100061.03;;;28.10;49.78
12182;BME280;6154;51.550;12.138;2022-09-09T09:16:19;100061.88;;;28.17;48.21
12182;BME280;6154;51.550;12.138;2022-09-09T09:18:51;100062.53;;;28.39;48.35
12182;BME280;6154;51.550;12.138;2022-09-09T09:21:23;100062.53;;;28.45;50.18
12182;BME280;6154;51.550;12.138;2022-09-09T09:23:56;100062.09;;;28.55;48.33
12182;BME280;6154;51.550;12.138;2022-09-09T09:26:29;100073.59;;;28.83;49.12
12182;BME280;6154;51.550;12.138;2022-09-09T09:29:03;100067.53;;;28.95;49.37
12182;BME280;6154;51.550;12.138;2022-09-09T09:31:42;100060.97;;;29.15;48.89
12182;BME280;6154;51.550;12.138;2022-09-09T09:34:11;100068.47;;;29.33;48.86
12182;BME280;6154;51.550;12.138;2022-09-09T09:36:42;100066.16;;;29.37;48.95
12182;BME280;6154;51.550;12.138;2022-09-09T09:39:23;100065.72;;;29.40;48.31
12182;BME280;6154;51.550;12.138;2022-09-09T09:42:13;100068.44;;;29.40;45.53
12182;BME280;6154;51.550;12.138;2022-09-09T09:44:49;100059.78;;;29.56;47.51
12182;BME280;6154;51.550;12.138;2022-09-09T09:47:18;100065.28;;;29.50;48.14
12182;BME280;6154;51.550;12.138;2022-09-09T09:49:52;100067.56;;;29.59;47.83
12182;BME280;6154;51.550;12.138;2022-09-09T09:52:23;100056.03;;;29.57;45.18
12182;BME280;6154;51.550;12.138;2022-09-09T09:54:52;100069.16;;;29.73;48.03
12182;BME280;6154;51.550;12.138;2022-09-09T09:57:24;100068.22;;;29.86;47.87
12182;BME280;6154;51.550;12.138;2022-09-09T10:00:13;100067.72;;;30.09;46.65
12182;BME280;6154;51.550;12.138;2022-09-09T10:02:45;100067.66;;;30.16;43.61
12182;BME280;6154;51.550;12.138;2022-09-09T10:05:17;100067.78;;;30.27;46.64
12182;BME280;6154;51.550;12.138;2022-09-09T10:08:04;100067.63;;;30.22;46.69
12182;BME280;6154;51.550;12.138;2022-09-09T10:11:02;100072.94;;;30.04;43.37
12182;BME280;6154;51.550;12.138;2022-09-09T10:13:39;100078.25;;;29.99;43.10
12182;BME280;6154;51.550;12.138;2022-09-09T10:16:22;100074.84;;;29.65;44.42
12182;BME280;6154;51.550;12.138;2022-09-09T10:18:59;100075.06;;;29.70;44.35
12182;BME280;6154;51.550;12.138;2022-09-09T10:21:41;100068.88;;;29.88;46.24
12182;BME280;6154;51.550;12.138;2022-09-09T10:24:30;100067.50;;;29.66;44.62
12182;BME280;6154;51.550;12.138;2022-09-09T10:27:05;100063.81;;;29.92;42.91
12182;BME280;6154;51.550;12.138;2022-09-09T10:29:56;100071.50;;;30.01;45.96
12182;BME280;6154;51.550;12.138;2022-09-09T10:32:41;100063.06;;;29.78;43.95
12182;BME280;6154;51.550;12.138;2022-09-09T10:35:27;100061.72;;;29.49;43.58
12182;BME280;6154;51.550;12.138;2022-09-09T10:38:14;100056.22;;;29.56;44.65
12182;BME280;6154;51.550;12.138;2022-09-09T10:41:05;100053.09;;;29.52;44.66
12182;BME280;6154;51.550;12.138;2022-09-09T10:43:50;100047.19;;;29.55;46.10
12182;BME280;6154;51.550;12.138;2022-09-09T10:46:33;100047.28;;;29.80;45.59
12182;BME280;6154;51.550;12.138;2022-09-09T10:49:16;100045.41;;;29.81;44.43
12182;BME280;6154;51.550;12.138;2022-09-09T10:51:56;100053.75;;;29.86;44.80
12182;BME280;6154;51.550;12.138;2022-09-09T10:54:40;100043.13;;;29.77;45.29
12182;BME280;6154;51.550;12.138;2022-09-09T10:57:17;100041.03;;;29.73;44.60
12182;BME280;6154;51.550;12.138;2022-09-09T10:59:50;100043.87;;;29.53;45.59
12182;BME280;6154;51.550;12.138;2022-09-09T11:02:26;100036.72;;;29.59;45.37
12182;BME280;6154;51.550;12.138;2022-09-09T11:04:59;100038.34;;;29.66;45.45
12182;BME280;6154;51.550;12.138;2022-09-09T11:07:34;100040.63;;;29.69;45.24
12182;BME280;6154;51.550;12.138;2022-09-09T11:10:14;100037.66;;;29.77;45.92
12182;BME280;6154;51.550;12.138;2022-09-09T11:12:46;100038.56;;;29.65;46.71
12182;BME280;6154;51.550;12.138;2022-09-09T11:15:20;100039.66;;;29.57;46.71
12182;BME280;6154;51.550;12.138;2022-09-09T11:17:53;100037.47;;;29.28;46.69
12182;BME280;6154;51.550;12.138;2022-09-09T11:20:25;100027.84;;;29.18;47.47
12182;BME280;6154;51.550;12.138;2022-09-09T11:22:57;100034.09;;;29.26;48.05
12182;BME280;6154;51.550;12.138;2022-09-09T11:25:31;100037.47;;;29.28;47.78
12182;BME280;6154;51.550;12.138;2022-09-09T11:28:21;100043.87;;;29.85;47.98
12182;BME280;6154;51.550;12.138;2022-09-09T11:31:09;100036.75;;;29.84;46.94
12182;BME280;6154;51.550;12.138;2022-09-09T11:34:02;100033.22;;;30.15;45.35
12182;BME280;6154;51.550;12.138;2022-09-09T11:36:55;100031.16;;;30.03;43.71
12182;BME280;6154;51.550;12.138;2022-09-09T11:39:38;100036.78;;;30.15;44.41
12182;BME280;6154;51.550;12.138;2022-09-09T11:42:18;100028.44;;;30.03;42.97
12182;BME280;6154;51.550;12.138;2022-09-09T11:44:46;100028.81;;;30.14;45.59
12182;BME280;6154;51.550;12.138;2022-09-09T11:47:19;100037.84;;;30.14;46.11
12182;BME280;6154;51.550;12.138;2022-09-09T11:49:48;100028.78;;;30.20;44.09
12182;BME280;6154;51.550;12.138;2022-09-09T11:52:22;100033.59;;;30.43;46.05
12182;BME280;6154;51.550;12.138;2022-09-09T11:54:55;100034.72;;;30.36;42.60
12182;BME280;6154;51.550;12.138;2022-09-09T11:57:26;100031.88;;;30.24;44.14
12182;BME280;6154;51.550;12.138;2022-09-09T11:59:58;100033.63;;;30.18;43.93
12182;BME280;6154;51.550;12.138;2022-09-09T12:02:48;100027.25;;;30.24;45.43
12182;BME280;6154;51.550;12.138;2022-09-09T12:05:17;100020.09;;;30.30;40.72
12182;BME280;6154;51.550;12.138;2022-09-09T12:07:51;100026.66;;;30.47;45.05
12182;BME280;6154;51.550;12.138;2022-09-09T12:10:23;100012.97;;;30.72;44.69
12182;BME280;6154;51.550;12.138;2022-09-09T12:12:53;100017.91;;;30.82;44.12
12182;BME280;6154;51.550;12.138;2022-09-09T12:15:24;100017.91;;;30.82;44.01
12182;BME280;6154;51.550;12.138;2022-09-09T12:17:56;100014.03;;;30.71;43.69
12182;BME280;6154;51.550;12.138;2022-09-09T12:20:34;100007.53;;;30.90;44.39
12182;BME280;6154;51.550;12.138;2022-09-09T12:23:25;100002.03;;;30.72;41.13
12182;BME280;6154;51.550;12.138;2022-09-09T12:26:00;100005.31;;;30.99;41.47
12182;BME280;6154;51.550;12.138;2022-09-09T12:28:47;99997.22;;;31.29;43.90
12182;BME280;6154;51.550;12.138;2022-09-09T12:31:24;99997.78;;;31.13;40.32
12182;BME280;6154;51.550;12.138;2022-09-09T12:33:53;99997.03;;;31.24;41.65
12182;BME280;6154;51.550;12.138;2022-09-09T12:36:24;99994.16;;;31.37;43.46
12182;BME280;6154;51.550;12.138;2022-09-09T12:38:59;99995.97;;;31.25;42.90
12182;BME280;6154;51.550;12.138;2022-09-09T12:41:37;99996.59;;;31.27;41.61
12182;BME280;6154;51.550;12.138;2022-09-09T12:44:06;99995.34;;;31.41;42.93
12182;BME280;6154;51.550;12.138;2022-09-09T12:46:38;99995.84;;;31.20;43.08
12182;BME280;6154;51.550;12.138;2022-09-09T12:49:26;99994.69;;;31.09;42.39
12182;BME280;6154;51.550;12.138;2022-09-09T12:51:55;99995.00;;;30.83;38.55
12182;BME280;6154;51.550;12.138;2022-09-09T12:54:26;99994.22;;;30.76;42.29
12182;BME280;6154;51.550;12.138;2022-09-09T12:56:54;99987.59;;;30.65;42.64
12182;BME280;6154;51.550;12.138;2022-09-09T12:59:24;99991.19;;;30.66;43.03
12182;BME280;6154;51.550;12.138;2022-09-09T13:01:56;99994.69;;;30.73;42.41
12182;BME280;6154;51.550;12.138;2022-09-09T13:04:25;99993.00;;;30.72;41.82
12182;BME280;6154;51.550;12.138;2022-09-09T13:06:53;99991.66;;;30.81;42.80
12182;BME280;6154;51.550;12.138;2022-09-09T13:09:22;99995.81;;;30.65;42.69
12182;BME280;6154;51.550;12.138;2022-09-09T13:11:52;99987.44;;;30.60;42.66
12182;BME280;6154;51.550;12.138;2022-09-09T13:14:28;99981.72;;;30.43;40.92
12182;BME280;6154;51.550;12.138;2022-09-09T13:17:00;99986.37;;;30.36;41.42
12182;BME280;6154;51.550;12.138;2022-09-09T13:19:36;99985.22;;;30.50;43.00
12182;BME280;6154;51.550;12.138;2022-09-09T13:22:11;99987.94;;;30.50;42.02
12182;BME280;6154;51.550;12.138;2022-09-09T13:24:40;99979.16;;;30.48;39.29